»·PEaware :: N21DA KOAK-KRDD

N21DA :: KOAK-KRDD

FLIGHT INFORMATION

Flight Status: Arrived
Operator: Privately registered:
United States
More flights under this callsign
Pilot: Dan A. (12711)
Aircraft: CESSNA 206 STATIONAIR
(C206)
More flights by this aircraft type
Origin: KOAK Metro Oakland Intl
United States
Destination: KRDD Redding Mun
United States
More flights between these airports :: More routes between these airports
Route: +OAK3 BERKS V195 RBL
File this flight plan on PilotEdge
Remarks:
Altitude:
(Current/Filed)
10,000ft
Speed:
(Current/Filed)
180kts
Departed: 15-Aug-19 06:58 PM
Arrived: 15-Aug-19 08:16 PM
Distance/Time
Traveled:
167nm/1:18
Distance/Time
To Go:
Arrived

Flight Plot

Page will automatically refresh every two minutes.

Flight plan parsing failed; only flown route is shown


Map Options




Map Legend


Flown Route
Filed Route
Departure Airport
Arrival Airport
Navaid (VOR, NDB)
Fix

Horizontal Profiles

Position Reports

Time Latitude Longitude Heading Altitude Ground
Speed
15-Aug-19 18:38 37.726296 -122.204224 127 10ft 0kts
15-Aug-19 18:38 37.726296 -122.204224 127 10ft 0kts
15-Aug-19 18:40 37.726296 -122.204224 127 10ft 0kts
15-Aug-19 18:40 37.726296 -122.204224 127 10ft 0kts
15-Aug-19 18:41 37.726296 -122.204224 127 10ft 0kts
15-Aug-19 18:43 37.726296 -122.204224 127 10ft 0kts
15-Aug-19 18:43 37.726296 -122.204224 127 10ft 0kts
15-Aug-19 18:44 37.726296 -122.204224 127 10ft 0kts
15-Aug-19 18:45 37.726296 -122.204224 127 10ft 0kts
15-Aug-19 18:46 37.726296 -122.204224 127 10ft 0kts
15-Aug-19 18:47 37.726296 -122.204224 127 10ft 0kts
15-Aug-19 18:48 37.726296 -122.204224 127 10ft 0kts
15-Aug-19 18:49 37.726296 -122.204224 127 10ft 0kts
15-Aug-19 18:50 37.726296 -122.204224 127 10ft 0kts
15-Aug-19 18:51 37.726296 -122.204224 127 10ft 0kts
15-Aug-19 18:52 37.726296 -122.204224 127 10ft 0kts
15-Aug-19 18:53 37.726296 -122.204224 127 10ft 0kts
15-Aug-19 18:54 37.724729 -122.203644 193 10ft 5kts
15-Aug-19 18:55 37.724524 -122.204221 292 10ft 0kts
15-Aug-19 18:56 37.724525 -122.204222 292 10ft 0kts
15-Aug-19 18:57 37.734341 -122.228227 291 804ft 119kts
15-Aug-19 18:58 37.747236 -122.270595 291 1659ft 133kts
15-Aug-19 18:59 37.761128 -122.315155 291 2514ft 135kts
15-Aug-19 19:00 37.775322 -122.359206 291 3420ft 136kts
15-Aug-19 19:01 37.796786 -122.394491 5 4212ft 153kts
15-Aug-19 19:02 37.818245 -122.348628 70 5056ft 158kts
15-Aug-19 19:03 37.833687 -122.297016 68 5921ft 150kts
15-Aug-19 19:04 37.848878 -122.249348 68 6620ft 143kts
15-Aug-19 19:05 37.871425 -122.211043 11 7318ft 142kts
15-Aug-19 19:06 37.910416 -122.207247 2 8013ft 143kts
15-Aug-19 19:07 37.950316 -122.203859 3 8718ft 144kts
15-Aug-19 19:08 37.990256 -122.200334 3 9421ft 144kts
15-Aug-19 19:09 38.030843 -122.196732 3 9975ft 154kts
15-Aug-19 19:10 38.076063 -122.192616 3 10002ft 167kts
15-Aug-19 19:11 38.122829 -122.188410 3 10012ft 167kts
15-Aug-19 19:12 38.169313 -122.184271 3 10019ft 167kts
15-Aug-19 19:13 38.215670 -122.180060 4 10022ft 167kts
15-Aug-19 19:14 38.261982 -122.175664 4 10032ft 166kts
15-Aug-19 19:15 38.308197 -122.171506 4 10028ft 167kts
15-Aug-19 19:16 38.354854 -122.167326 4 10024ft 168kts
15-Aug-19 19:17 38.401444 -122.163184 4 10032ft 169kts
15-Aug-19 19:18 38.448290 -122.158907 4 10028ft 169kts
15-Aug-19 19:19 38.495180 -122.154739 4 10019ft 169kts
15-Aug-19 19:20 38.542117 -122.150612 3 10017ft 169kts
15-Aug-19 19:21 38.588985 -122.146030 8 10014ft 169kts
15-Aug-19 19:22 38.635021 -122.134878 11 10016ft 169kts
15-Aug-19 19:23 38.679363 -122.123949 10 10459ft 152kts
15-Aug-19 19:24 38.719980 -122.114124 11 11157ft 147kts
15-Aug-19 19:25 38.759933 -122.104327 11 11858ft 146kts
15-Aug-19 19:26 38.799952 -122.094408 11 12562ft 146kts
15-Aug-19 19:27 38.839745 -122.084616 10 13262ft 146kts
15-Aug-19 19:28 38.879802 -122.074729 11 13945ft 149kts
15-Aug-19 19:29 38.924276 -122.063622 10 13976ft 172kts
15-Aug-19 19:30 38.971739 -122.051550 8 13972ft 174kts
15-Aug-19 19:31 39.018758 -122.039845 6 13968ft 170kts
15-Aug-19 19:32 39.064245 -122.028558 6 13965ft 162kts
15-Aug-19 19:33 39.108210 -122.025326 357 13968ft 157kts
15-Aug-19 19:34 39.152017 -122.023446 357 13968ft 157kts
15-Aug-19 19:35 39.195733 -122.021893 357 13968ft 157kts
15-Aug-19 19:36 39.239619 -122.019744 357 13971ft 157kts
15-Aug-19 19:37 39.283340 -122.017579 357 13975ft 157kts
15-Aug-19 19:38 39.326352 -122.015719 357 13979ft 157kts
15-Aug-19 19:39 39.369945 -122.013890 357 13982ft 157kts
15-Aug-19 19:40 39.413450 -122.012042 357 13984ft 156kts
15-Aug-19 19:41 39.456957 -122.010001 357 13979ft 156kts
15-Aug-19 19:42 39.500330 -122.008185 357 13977ft 156kts
15-Aug-19 19:43 39.543634 -122.006165 357 13976ft 156kts
15-Aug-19 19:44 39.586972 -122.004267 357 13976ft 155kts
15-Aug-19 19:45 39.630240 -122.002428 357 13977ft 155kts
15-Aug-19 19:46 39.671156 -122.013281 336 13976ft 151kts
15-Aug-19 19:47 39.710439 -122.032992 335 13976ft 151kts
15-Aug-19 19:48 39.749574 -122.053243 335 13976ft 151kts
15-Aug-19 19:49 39.788611 -122.073583 335 13976ft 151kts
15-Aug-19 19:50 39.827696 -122.094099 335 13976ft 151kts
15-Aug-19 19:51 39.866876 -122.114372 335 13974ft 151kts
15-Aug-19 19:52 39.909690 -122.130909 345 13468ft 166kts
15-Aug-19 19:53 39.953875 -122.141605 344 12911ft 142kts
15-Aug-19 19:54 39.988486 -122.150976 343 11946ft 111kts
15-Aug-19 19:55 40.015997 -122.158561 344 10724ft 96kts
15-Aug-19 19:56 40.043323 -122.166039 346 9520ft 104kts
15-Aug-19 19:57 40.071644 -122.173743 347 8310ft 105kts
15-Aug-19 19:58 40.100046 -122.181436 348 7095ft 103kts
15-Aug-19 19:59 40.127066 -122.188865 349 5894ft 98kts
15-Aug-19 20:00 40.154100 -122.196116 350 4700ft 102kts
15-Aug-19 20:01 40.180893 -122.203444 350 4009ft 99kts
15-Aug-19 20:02 40.212874 -122.212047 349 4000ft 124kts
15-Aug-19 20:03 40.244024 -122.220821 350 4000ft 109kts
15-Aug-19 20:04 40.274013 -122.230896 317 4000ft 110kts
15-Aug-19 20:05 40.298184 -122.261215 313 3489ft 131kts
15-Aug-19 20:06 40.324752 -122.291529 335 2781ft 123kts
15-Aug-19 20:07 40.357283 -122.295074 357 1903ft 95kts
15-Aug-19 20:08 40.380724 -122.295032 357 1943ft 76kts
15-Aug-19 20:09 40.400120 -122.295023 357 2048ft 73kts
15-Aug-19 20:10 40.421646 -122.295021 358 2373ft 80kts
15-Aug-19 20:11 40.444154 -122.295324 356 2517ft 95kts
15-Aug-19 20:12 40.468068 -122.294886 1 1163ft 83kts
15-Aug-19 20:13 40.489030 -122.294525 4 862ft 71kts
15-Aug-19 20:14 40.506053 -122.294912 1 508ft 51kts
15-Aug-19 20:15 40.511182 -122.294851 1 506ft 3kts
15-Aug-19 20:16 40.514197 -122.295373 275 506ft 1kts
15-Aug-19 20:17 40.512200 -122.296277 179 506ft 11kts
15-Aug-19 20:18 40.508480 -122.297047 197 506ft 11kts
15-Aug-19 20:19 40.507958 -122.299092 315 506ft 0kts
15-Aug-19 20:20 40.507958 -122.299092 315 506ft 0kts
15-Aug-19 20:21 40.507958 -122.299092 315 506ft 0kts
15-Aug-19 20:22 40.507958 -122.299092 315 506ft 0kts

Navigation Log

Ident Type
Flight plan parsing failed, navigation log unavailable